createdAt,value
2019-02-22T00:00:27.481Z,62.40
2019-02-22T00:01:27.492Z,60.80
2019-02-22T00:02:27.445Z,64.60
2019-02-22T00:03:27.438Z,61.00
2019-02-22T00:04:27.421Z,60.30
2019-02-22T00:05:27.419Z,63.20
2019-02-22T00:06:27.417Z,60.60
2019-02-22T00:07:27.395Z,65.80
2019-02-22T00:08:27.414Z,63.30
2019-02-22T00:09:27.402Z,65.20
2019-02-22T00:10:27.358Z,64.70
2019-02-22T00:11:27.349Z,67.10
2019-02-22T00:12:27.337Z,65.60
2019-02-22T00:13:27.332Z,68.70
2019-02-22T00:14:27.339Z,64.20
2019-02-22T00:15:27.306Z,68.00
2019-02-22T00:16:27.295Z,70.60
2019-02-22T00:17:27.280Z,66.70
2019-02-22T00:18:27.273Z,68.70
2019-02-22T00:19:27.290Z,65.50
2019-02-22T00:20:27.279Z,67.90
2019-02-22T00:21:27.236Z,69.70
2019-02-22T00:22:27.231Z,68.00
2019-02-22T00:23:27.225Z,68.70
2019-02-22T00:24:27.244Z,67.30
2019-02-22T00:25:27.197Z,67.20
2019-02-22T00:26:27.181Z,65.70
2019-02-22T00:27:27.170Z,66.90
2019-02-22T00:28:27.194Z,70.60
2019-02-22T00:29:27.180Z,66.10
2019-02-22T00:30:27.142Z,71.40
2019-02-22T00:31:27.134Z,66.60
2019-02-22T00:32:27.112Z,69.10
2019-02-22T00:33:27.105Z,68.80
2019-02-22T00:34:27.114Z,67.40
2019-02-22T00:35:27.286Z,68.00
2019-02-22T00:36:27.163Z,70.80
2019-02-22T00:37:27.096Z,65.20
2019-02-22T00:38:27.225Z,71.30
2019-02-22T00:39:27.036Z,71.40
2019-02-22T00:40:27.041Z,70.30
2019-02-22T00:41:27.015Z,68.10
2019-02-22T00:42:27.026Z,69.40
2019-02-22T00:43:26.993Z,68.50
2019-02-22T00:44:26.985Z,70.60
2019-02-22T00:45:26.974Z,71.40
2019-02-22T00:46:26.975Z,69.80
2019-02-22T00:47:26.978Z,68.40
2019-02-22T00:48:26.961Z,71.10
2019-02-22T00:49:26.926Z,70.20
2019-02-22T00:50:26.946Z,72.90
2019-02-22T00:51:26.934Z,70.00
2019-02-22T00:52:26.896Z,71.80
2019-02-22T00:53:26.891Z,68.00
2019-02-22T00:54:26.870Z,68.40
2019-02-22T00:55:26.859Z,68.40
2019-02-22T00:56:26.853Z,75.40
2019-02-22T00:57:26.873Z,71.70
2019-02-22T00:58:26.827Z,72.80
2019-02-22T00:59:26.813Z,72.10
2019-02-22T01:00:26.808Z,75.90
2019-02-22T01:01:26.790Z,74.90
2019-02-22T01:02:26.778Z,72.90
2019-02-22T01:03:26.797Z,69.70
2019-02-22T01:04:26.759Z,74.70
2019-02-22T01:05:26.755Z,70.60
2019-02-22T01:06:26.735Z,72.70
2019-02-22T01:07:26.728Z,70.10
2019-02-22T01:08:26.720Z,74.10
2019-02-22T01:09:26.722Z,72.40
2019-02-22T01:10:31.358Z,70.70
2019-02-22T01:11:26.682Z,74.90
2019-02-22T01:12:26.667Z,74.00
2019-02-22T01:13:26.656Z,78.70
2019-02-22T01:14:26.653Z,76.60
2019-02-22T01:15:26.677Z,75.50
2019-02-22T01:16:26.625Z,78.10
2019-02-22T01:17:26.612Z,79.30
2019-02-22T01:18:26.605Z,79.20
2019-02-22T01:19:26.620Z,78.80
2019-02-22T01:20:26.592Z,84.50
2019-02-22T01:21:26.571Z,85.90
2019-02-22T01:22:26.557Z,83.60
2019-02-22T01:23:26.546Z,80.80
2019-02-22T01:24:26.538Z,78.90
2019-02-22T01:25:26.580Z,83.00
2019-02-22T01:26:26.521Z,79.60
2019-02-22T01:27:26.504Z,83.70
2019-02-22T01:28:26.491Z,79.70
2019-02-22T01:29:26.527Z,79.50
2019-02-22T01:30:26.530Z,77.20
2019-02-22T01:31:26.459Z,80.90
2019-02-22T01:32:26.451Z,75.50
2019-02-22T01:33:26.437Z,80.30
2019-02-22T01:34:26.427Z,77.10
2019-02-22T01:35:26.413Z,76.20
2019-02-22T01:36:26.471Z,84.90
2019-02-22T01:37:26.393Z,80.80
2019-02-22T01:38:26.379Z,81.60
2019-02-22T01:39:26.375Z,79.90
2019-02-22T01:40:26.368Z,81.20
2019-02-22T01:41:26.350Z,82.10
2019-02-22T01:42:26.374Z,79.20
2019-02-22T01:43:26.327Z,79.40
2019-02-22T01:44:26.314Z,80.90
2019-02-22T01:45:26.307Z,80.30
2019-02-22T01:46:26.291Z,79.10
2019-02-22T01:47:26.281Z,81.30
2019-02-22T01:48:26.284Z,85.00
2019-02-22T01:49:26.273Z,82.00
2019-02-22T01:50:26.256Z,83.50
2019-02-22T01:51:26.275Z,82.90
2019-02-22T01:52:26.226Z,84.10
2019-02-22T01:53:26.243Z,80.80
2019-02-22T01:54:26.221Z,80.80
2019-02-22T01:55:26.196Z,83.00
2019-02-22T01:56:26.193Z,78.40
2019-02-22T01:57:26.208Z,80.10
2019-02-22T01:58:26.161Z,79.30
2019-02-22T01:59:26.175Z,76.60
2019-02-22T02:00:26.135Z,77.50
2019-02-22T02:01:26.128Z,74.20
2019-02-22T02:02:26.123Z,72.80
2019-02-22T02:03:26.103Z,77.10
2019-02-22T02:04:26.139Z,72.10
2019-02-22T02:05:26.089Z,78.40
2019-02-22T02:06:26.069Z,77.90
2019-02-22T02:07:26.064Z,77.00
2019-02-22T02:08:26.050Z,74.80
2019-02-22T02:09:26.036Z,75.20
2019-02-22T02:10:26.056Z,76.20
2019-02-22T02:11:26.014Z,76.40
2019-02-22T02:12:26.004Z,74.80
2019-02-22T02:13:25.996Z,73.90
2019-02-22T02:14:25.981Z,84.40
2019-02-22T02:15:25.977Z,78.70
2019-02-22T02:16:25.973Z,75.40
2019-02-22T02:17:25.980Z,79.20
2019-02-22T02:18:25.966Z,80.80
2019-02-22T02:19:25.931Z,79.90
2019-02-22T02:20:25.961Z,79.50
2019-02-22T02:21:25.937Z,76.50
2019-02-22T02:22:25.895Z,77.80
2019-02-22T02:23:25.885Z,77.70
2019-02-22T02:24:25.880Z,81.10
2019-02-22T02:25:25.857Z,77.00
2019-02-22T02:26:25.895Z,79.40
2019-02-22T02:27:25.838Z,76.50
2019-02-22T02:28:25.829Z,80.00
2019-02-22T02:29:25.824Z,81.60
2019-02-22T02:30:25.805Z,79.70
2019-02-22T02:31:25.792Z,79.30
2019-02-22T02:32:25.796Z,87.20
2019-02-22T02:33:25.770Z,80.30
2019-02-22T02:34:25.757Z,83.30
2019-02-22T02:35:25.748Z,80.20
2019-02-22T02:36:25.736Z,87.10
2019-02-22T02:37:25.759Z,79.20
2019-02-22T02:38:25.719Z,87.90
2019-02-22T02:39:25.742Z,78.90
2019-02-22T02:40:25.691Z,83.50
2019-02-22T02:41:25.681Z,81.20
2019-02-22T02:42:25.669Z,81.00
2019-02-22T02:43:25.660Z,83.90
2019-02-22T02:44:25.825Z,93.70
2019-02-22T02:45:25.654Z,89.80
2019-02-22T02:46:25.626Z,84.00
2019-02-22T02:47:25.613Z,88.60
2019-02-22T02:48:25.601Z,85.70
2019-02-22T02:49:25.605Z,87.40
2019-02-22T02:50:25.611Z,87.50
2019-02-22T02:51:25.577Z,88.10
2019-02-22T02:52:25.562Z,90.20
2019-02-22T02:53:25.547Z,92.90
2019-02-22T02:54:25.592Z,90.90
2019-02-22T02:55:25.524Z,92.40
2019-02-22T02:56:25.586Z,89.00
2019-02-22T02:57:25.506Z,91.30
2019-02-22T02:58:25.491Z,91.20
2019-02-22T02:59:25.478Z,92.30
2019-02-22T03:00:25.471Z,91.40
2019-02-22T03:01:25.492Z,89.40
2019-02-22T03:02:25.449Z,89.30
2019-02-22T03:03:25.435Z,89.40
2019-02-22T03:04:25.424Z,98.00
2019-02-22T03:05:25.421Z,96.60
2019-02-22T03:06:25.426Z,97.40
2019-02-22T03:07:25.399Z,100.60
2019-02-22T03:08:25.382Z,92.20
2019-02-22T03:09:25.373Z,94.30
2019-02-22T03:10:25.361Z,95.70
2019-02-22T03:11:25.352Z,101.50
2019-02-22T03:12:25.351Z,99.40
2019-02-22T03:13:25.323Z,98.30
2019-02-22T03:14:25.322Z,97.80
2019-02-22T03:15:25.305Z,104.70
2019-02-22T03:16:25.303Z,102.40
2019-02-22T03:17:25.325Z,104.30
2019-02-22T03:18:25.271Z,106.00
2019-02-22T03:19:25.307Z,106.10
2019-02-22T03:20:25.249Z,103.50
2019-02-22T03:21:25.248Z,109.10
2019-02-22T03:22:25.231Z,101.70
2019-02-22T03:23:25.241Z,99.70
2019-02-22T03:24:25.239Z,98.20
2019-02-22T03:25:25.200Z,102.00
2019-02-22T03:26:25.180Z,104.80
2019-02-22T03:27:25.171Z,105.90
2019-02-22T03:28:25.159Z,105.80
2019-02-22T03:29:25.172Z,102.20
2019-02-22T03:30:25.155Z,98.80
2019-02-22T03:31:25.139Z,98.70
2019-02-22T03:32:25.126Z,105.40
2019-02-22T03:33:25.126Z,102.20
2019-02-22T03:34:25.121Z,103.60
2019-02-22T03:35:25.080Z,104.80
2019-02-22T03:36:25.070Z,96.90
2019-02-22T03:37:25.120Z,107.20
2019-02-22T03:38:25.049Z,100.90
2019-02-22T03:39:25.037Z,97.50
2019-02-22T03:40:25.033Z,99.00
2019-02-22T03:41:33.066Z,101.20
2019-02-22T03:42:26.001Z,98.90
2019-02-22T03:43:25.003Z,106.40
2019-02-22T03:44:25.011Z,98.30
2019-02-22T03:45:24.969Z,101.10
2019-02-22T03:46:25.078Z,100.00
2019-02-22T03:47:24.955Z,103.10
2019-02-22T03:48:25.041Z,102.60
2019-02-22T03:49:24.930Z,99.50
2019-02-22T03:50:24.912Z,101.30
2019-02-22T03:51:24.903Z,102.30
2019-02-22T03:52:24.907Z,104.70
2019-02-22T03:53:24.887Z,95.10
2019-02-22T03:54:24.876Z,100.10
2019-02-22T03:55:24.859Z,103.10
2019-02-22T03:56:24.852Z,99.80
2019-02-22T03:57:24.887Z,98.20
2019-02-22T03:58:24.824Z,107.20
2019-02-22T03:59:24.894Z,97.70
2019-02-22T04:00:24.805Z,96.50
2019-02-22T04:01:24.802Z,102.50
2019-02-22T04:02:24.781Z,99.50
2019-02-22T04:03:24.792Z,104.30
2019-02-22T04:04:24.766Z,106.20
2019-02-22T04:05:24.793Z,108.50
2019-02-22T04:06:24.737Z,105.60
2019-02-22T04:07:24.727Z,111.70
2019-02-22T04:08:24.732Z,109.20
2019-02-22T04:09:24.709Z,113.50
2019-02-22T04:10:24.727Z,110.40
2019-02-22T04:11:24.689Z,109.00
2019-02-22T04:12:24.679Z,119.80
2019-02-22T04:13:24.660Z,109.60
2019-02-22T04:14:24.687Z,103.00
2019-02-22T04:15:24.639Z,107.40
2019-02-22T04:16:24.622Z,112.70
2019-02-22T04:17:24.623Z,111.40
2019-02-22T04:18:24.602Z,110.70
2019-02-22T04:19:24.615Z,103.70
2019-02-22T04:20:24.621Z,106.10
2019-02-22T04:21:24.577Z,107.40
2019-02-22T04:22:24.561Z,99.70
2019-02-22T04:23:24.547Z,102.50
2019-02-22T04:24:24.537Z,105.30
2019-02-22T04:25:24.523Z,110.40
2019-02-22T04:26:24.532Z,107.80
2019-02-22T04:27:24.503Z,108.10
2019-02-22T04:28:24.498Z,110.40
2019-02-22T04:29:24.484Z,102.10
2019-02-22T04:30:24.468Z,110.00
2019-02-22T04:31:24.496Z,106.10
2019-02-22T04:32:24.449Z,106.10
2019-02-22T04:33:24.438Z,112.40
2019-02-22T04:34:24.481Z,104.60
2019-02-22T04:35:24.415Z,106.80
2019-02-22T04:36:24.414Z,110.10
2019-02-22T04:37:24.393Z,112.10
2019-02-22T04:38:24.384Z,118.50
2019-02-22T04:39:24.373Z,108.90
2019-02-22T04:40:24.358Z,119.20
2019-02-22T04:41:24.398Z,114.50
2019-02-22T04:42:24.336Z,116.70
2019-02-22T04:43:24.325Z,109.30
2019-02-22T04:44:24.320Z,118.60
2019-02-22T04:45:24.306Z,111.30
2019-02-22T04:46:24.304Z,110.40
2019-02-22T04:47:24.284Z,112.50
2019-02-22T04:48:24.271Z,120.40
2019-02-22T04:50:31.347Z,109.60
2019-02-22T04:51:24.239Z,118.90
2019-02-22T04:52:24.252Z,107.30
2019-02-22T04:53:24.214Z,106.90
2019-02-22T04:54:24.203Z,98.10
2019-02-22T04:55:24.198Z,102.50
2019-02-22T04:56:24.183Z,97.80
2019-02-22T04:57:24.173Z,97.70
2019-02-22T04:58:24.207Z,98.30
2019-02-22T04:59:24.150Z,100.50
2019-02-22T05:00:24.139Z,94.60
2019-02-22T05:01:24.136Z,96.50
2019-02-22T05:02:24.129Z,96.40
2019-02-22T05:03:24.105Z,89.40
2019-02-22T05:04:24.125Z,86.50
2019-02-22T05:05:24.081Z,87.50
2019-02-22T05:06:24.072Z,90.10
2019-02-22T05:07:24.064Z,86.60
2019-02-22T05:08:24.046Z,83.70
2019-02-22T05:09:24.045Z,86.60
2019-02-22T05:10:24.042Z,80.80
2019-02-22T05:11:24.017Z,84.80
2019-02-22T05:12:24.004Z,81.20
2019-02-22T05:13:24.000Z,86.00
2019-02-22T05:14:24.006Z,84.30
2019-02-22T05:15:23.975Z,80.80
2019-02-22T05:16:23.961Z,86.70
2019-02-22T05:17:23.949Z,79.10
2019-02-22T05:18:23.941Z,87.70
2019-02-22T05:19:23.967Z,84.60
2019-02-22T05:20:23.917Z,85.90
2019-02-22T05:21:23.907Z,80.40
2019-02-22T05:22:23.895Z,81.50
2019-02-22T05:23:23.891Z,81.80
2019-02-22T05:24:23.911Z,79.30
2019-02-22T05:25:23.865Z,77.10
2019-02-22T05:26:23.852Z,80.20
2019-02-22T05:27:23.836Z,78.40
2019-02-22T05:28:23.850Z,72.60
2019-02-22T05:29:23.816Z,72.70
2019-02-22T05:30:23.837Z,74.50
2019-02-22T05:31:23.804Z,70.20
2019-02-22T05:32:23.779Z,69.90
2019-02-22T05:33:23.773Z,72.20
2019-02-22T05:34:23.770Z,68.60
2019-02-22T05:35:23.754Z,73.50
2019-02-22T05:36:23.752Z,67.90
2019-02-22T05:37:23.727Z,69.60
2019-02-22T05:38:23.720Z,65.60
2019-02-22T05:39:23.703Z,63.60
2019-02-22T05:40:23.709Z,63.30
2019-02-22T05:41:23.698Z,58.80
2019-02-22T05:42:23.704Z,59.60
2019-02-22T05:43:23.663Z,64.60
2019-02-22T05:44:23.652Z,61.30
2019-02-22T05:45:23.660Z,64.50
2019-02-22T05:46:23.632Z,61.20
2019-02-22T05:47:23.616Z,65.00
2019-02-22T05:48:25.475Z,60.40
2019-02-22T05:49:23.594Z,60.10
2019-02-22T05:50:23.596Z,59.80
2019-02-22T05:51:23.572Z,59.50
2019-02-22T05:52:23.584Z,56.00
2019-02-22T05:53:23.561Z,57.80
2019-02-22T05:54:23.546Z,56.10
2019-02-22T05:55:23.532Z,56.50
2019-02-22T05:56:23.531Z,57.70
2019-02-22T05:57:23.507Z,56.60
2019-02-22T05:58:23.491Z,57.00
2019-02-22T05:59:23.483Z,57.70
2019-02-22T06:00:23.471Z,61.60
2019-02-22T06:01:23.479Z,57.00
2019-02-22T06:02:23.460Z,57.60
2019-02-22T06:03:23.440Z,53.40
2019-02-22T06:04:23.426Z,57.90
2019-02-22T06:05:23.416Z,60.60
2019-02-22T06:06:23.406Z,61.80
2019-02-22T06:07:23.407Z,60.40
2019-02-22T06:08:23.384Z,59.40
2019-02-22T06:09:23.370Z,56.60
2019-02-22T06:10:23.360Z,57.60
2019-02-22T06:11:23.354Z,57.20
2019-02-22T06:12:33.875Z,55.30
2019-02-22T06:13:24.325Z,55.60
2019-02-22T06:14:23.313Z,54.60
2019-02-22T06:15:23.303Z,55.00
2019-02-22T06:16:23.299Z,54.50
2019-02-22T06:17:23.292Z,58.60
2019-02-22T06:18:23.382Z,55.70
2019-02-22T06:19:23.264Z,56.90
2019-02-22T06:20:23.256Z,59.20
2019-02-22T06:21:23.237Z,61.40
2019-02-22T06:22:29.562Z,58.00
2019-02-22T06:23:24.256Z,57.10
2019-02-22T06:24:23.203Z,58.90
2019-02-22T06:25:23.193Z,61.30
2019-02-22T06:26:23.183Z,66.20
2019-02-22T06:27:23.174Z,66.30
2019-02-22T06:28:23.185Z,66.20
2019-02-22T06:29:23.163Z,62.60
2019-02-22T06:30:23.141Z,66.40
2019-02-22T06:31:23.139Z,71.50
2019-02-22T06:32:23.121Z,67.20
2019-02-22T06:33:23.104Z,60.90
2019-02-22T06:34:23.126Z,63.00
2019-02-22T06:35:23.083Z,66.40
2019-02-22T06:36:23.080Z,65.20
2019-02-22T06:37:23.061Z,66.90
2019-02-22T06:38:23.051Z,66.20
2019-02-22T06:39:23.049Z,63.90
2019-02-22T06:40:23.057Z,61.10
2019-02-22T06:41:23.019Z,65.20
2019-02-22T06:42:23.010Z,62.40
2019-02-22T06:43:22.994Z,62.90
2019-02-22T06:44:22.985Z,63.20
2019-02-22T06:45:22.977Z,65.40
2019-02-22T06:46:22.976Z,60.90
2019-02-22T06:47:23.074Z,64.60
2019-02-22T06:48:22.941Z,65.10
2019-02-22T06:49:22.932Z,65.10
2019-02-22T06:50:33.298Z,64.50
2019-02-22T06:51:23.908Z,70.70
2019-02-22T06:52:22.922Z,63.90
2019-02-22T06:53:22.885Z,62.20
2019-02-22T06:54:22.876Z,64.10
2019-02-22T06:55:22.865Z,64.00
2019-02-22T06:56:24.297Z,67.20
2019-02-22T06:57:22.853Z,63.90
2019-02-22T06:58:22.833Z,65.40
2019-02-22T06:59:22.822Z,61.10
2019-02-22T07:00:22.814Z,63.50
2019-02-22T07:01:22.801Z,67.30
2019-02-22T07:02:22.807Z,69.80
2019-02-22T07:03:22.782Z,65.90
2019-02-22T07:04:22.778Z,66.20
2019-02-22T07:05:22.757Z,66.90
2019-02-22T07:06:22.745Z,66.80
2019-02-22T07:07:22.744Z,66.00
2019-02-22T07:08:22.733Z,67.80
2019-02-22T07:09:22.712Z,70.60
2019-02-22T07:10:22.719Z,73.30
2019-02-22T07:11:22.690Z,67.10
2019-02-22T07:12:22.675Z,72.20
2019-02-22T07:13:24.508Z,71.00
2019-02-22T07:14:22.701Z,72.60
2019-02-22T07:15:22.648Z,72.40
2019-02-22T07:16:22.643Z,73.80
2019-02-22T07:17:22.624Z,68.80
2019-02-22T07:18:22.625Z,74.40
2019-02-22T07:19:22.601Z,72.10
2019-02-22T07:20:22.605Z,72.40
2019-02-22T07:21:22.580Z,75.20
2019-02-22T07:22:22.572Z,73.60
2019-02-22T07:23:22.562Z,71.10
2019-02-22T07:24:22.555Z,73.30
2019-02-22T07:25:22.568Z,77.10
2019-02-22T07:26:22.522Z,72.10
2019-02-22T07:27:22.512Z,72.10
2019-02-22T07:28:22.500Z,75.30
2019-02-22T07:29:22.490Z,69.30
2019-02-22T07:30:22.479Z,72.60
2019-02-22T07:31:22.565Z,69.80
2019-02-22T07:32:22.459Z,66.50
2019-02-22T07:33:22.445Z,66.00
2019-02-22T07:34:22.434Z,67.10
2019-02-22T07:35:22.456Z,70.30
2019-02-22T07:36:22.445Z,63.10
2019-02-22T07:37:22.407Z,62.00
2019-02-22T07:38:22.393Z,67.20
2019-02-22T07:39:27.879Z,63.10
2019-02-22T07:40:23.378Z,63.90
2019-02-22T07:41:22.359Z,64.10
2019-02-22T07:42:22.374Z,55.90
2019-02-22T07:43:22.337Z,59.20
2019-02-22T07:44:22.323Z,61.10
2019-02-22T07:45:22.314Z,58.50
2019-02-22T07:46:22.302Z,55.40
2019-02-22T07:47:22.315Z,55.20
2019-02-22T07:48:22.278Z,54.00
2019-02-22T07:49:22.277Z,58.00
2019-02-22T07:50:22.268Z,58.70
2019-02-22T07:51:22.247Z,52.80
2019-02-22T07:52:22.273Z,54.90
2019-02-22T07:53:22.233Z,54.50
2019-02-22T07:54:22.214Z,52.50
2019-02-22T07:55:22.203Z,52.20
2019-02-22T07:56:22.193Z,46.40
2019-02-22T07:57:22.182Z,48.10
2019-02-22T07:58:22.194Z,45.70
2019-02-22T07:59:22.169Z,42.50
2019-02-22T08:00:22.151Z,38.10
2019-02-22T08:01:22.144Z,39.50
2019-02-22T08:02:22.150Z,39.50
2019-02-22T08:03:22.155Z,38.60
2019-02-22T08:04:22.122Z,38.30
2019-02-22T08:05:22.101Z,41.20
2019-02-22T08:06:22.085Z,40.50
2019-02-22T08:07:22.072Z,40.20
2019-02-22T08:08:22.089Z,39.20
2019-02-22T08:09:22.061Z,40.10
2019-02-22T08:10:22.038Z,37.70
2019-02-22T08:11:22.031Z,42.20
2019-02-22T08:12:22.020Z,40.50
2019-02-22T08:13:22.014Z,41.00
2019-02-22T08:14:22.031Z,39.60
2019-02-22T08:15:21.983Z,40.80
2019-02-22T08:16:21.975Z,39.30
2019-02-22T08:17:21.968Z,38.20
2019-02-22T08:18:21.951Z,35.80
2019-02-22T08:19:21.975Z,35.30
2019-02-22T08:20:21.931Z,36.50
2019-02-22T08:21:21.928Z,36.50
2019-02-22T08:22:21.910Z,39.20
2019-02-22T08:23:21.907Z,37.60
2019-02-22T08:24:21.892Z,39.90
2019-02-22T08:25:21.915Z,38.90
2019-02-22T08:26:21.873Z,38.70
2019-02-22T08:27:21.861Z,37.90
2019-02-22T08:28:21.847Z,39.40
2019-02-22T08:29:21.894Z,40.60
2019-02-22T08:30:21.832Z,39.40
2019-02-22T08:31:21.837Z,40.50
2019-02-22T08:32:21.806Z,38.30
2019-02-22T08:33:21.802Z,38.40
2019-02-22T08:34:21.783Z,38.60
2019-02-22T08:35:21.803Z,39.50
2019-02-22T08:36:21.756Z,38.90
2019-02-22T08:37:21.745Z,40.30
2019-02-22T08:38:21.739Z,40.00
2019-02-22T08:39:21.731Z,41.90
2019-02-22T08:40:21.767Z,38.10
2019-02-22T08:41:21.701Z,41.80
2019-02-22T08:42:21.693Z,41.30
2019-02-22T08:43:31.165Z,42.30
2019-02-22T08:44:22.668Z,39.40
2019-02-22T08:45:21.660Z,43.20
2019-02-22T08:46:21.684Z,43.30
2019-02-22T08:47:21.669Z,41.50
2019-02-22T08:48:21.627Z,42.40
2019-02-22T08:49:21.616Z,43.00
2019-02-22T08:50:21.624Z,42.50
2019-02-22T08:51:21.593Z,44.10
2019-02-22T08:52:21.627Z,43.90
2019-02-22T08:53:21.572Z,41.90
2019-02-22T08:54:21.562Z,43.60
2019-02-22T08:55:21.639Z,41.90
2019-02-22T08:56:21.548Z,40.80
2019-02-22T08:57:21.538Z,45.30
2019-02-22T08:58:21.518Z,44.80
2019-02-22T08:59:21.538Z,47.20
2019-02-22T09:00:21.493Z,47.10
2019-02-22T09:01:21.484Z,48.90
2019-02-22T09:02:21.471Z,46.40
2019-02-22T09:03:21.538Z,45.40
2019-02-22T09:04:21.463Z,48.80
2019-02-22T09:05:21.473Z,47.10
2019-02-22T09:06:21.429Z,44.00
2019-02-22T09:07:21.416Z,49.90
2019-02-22T09:08:21.439Z,52.40
2019-02-22T09:09:21.405Z,44.90
2019-02-22T09:10:21.410Z,45.90
2019-02-22T09:11:21.372Z,50.50
2019-02-22T09:12:21.364Z,47.10
2019-02-22T09:13:21.352Z,50.20
2019-02-22T09:14:21.340Z,48.00
2019-02-22T09:15:21.364Z,47.50
2019-02-22T09:16:21.319Z,48.40
2019-02-22T09:17:21.311Z,52.50
2019-02-22T09:18:21.297Z,49.40
2019-02-22T09:19:21.284Z,49.50
2019-02-22T09:20:21.303Z,47.50
2019-02-22T09:21:21.269Z,51.40
2019-02-22T09:22:23.139Z,51.10
2019-02-22T09:23:21.246Z,50.10
2019-02-22T09:24:21.277Z,52.50
2019-02-22T09:25:21.220Z,49.20
2019-02-22T09:26:21.211Z,50.40
2019-02-22T09:27:21.201Z,49.90
2019-02-22T09:28:21.193Z,50.10
2019-02-22T09:29:21.181Z,52.30
2019-02-22T09:30:21.187Z,54.00
2019-02-22T09:31:21.155Z,50.10
2019-02-22T09:32:21.146Z,54.00
2019-02-22T09:33:21.137Z,54.70
2019-02-22T09:34:21.129Z,56.80
2019-02-22T09:35:21.125Z,63.10
2019-02-22T09:36:21.103Z,62.20
2019-02-22T09:37:21.088Z,58.10
2019-02-22T09:38:21.081Z,61.00
2019-02-22T09:39:21.071Z,58.30
2019-02-22T09:40:21.104Z,62.20
2019-02-22T09:41:21.046Z,61.60
2019-02-22T09:42:21.035Z,58.60
2019-02-22T09:43:21.027Z,55.00
2019-02-22T09:44:21.014Z,56.70
2019-02-22T09:45:21.003Z,61.40
2019-02-22T09:46:21.045Z,61.20
2019-02-22T09:47:20.979Z,60.50
2019-02-22T09:48:21.029Z,64.50
2019-02-22T09:49:20.960Z,61.80
2019-02-22T09:50:20.951Z,60.80
2019-02-22T09:51:20.945Z,59.60
2019-02-22T09:52:20.962Z,60.00
2019-02-22T09:53:20.915Z,60.80
2019-02-22T09:54:20.910Z,64.40
2019-02-22T09:55:20.892Z,60.80
2019-02-22T09:56:20.916Z,65.20
2019-02-22T09:57:20.907Z,60.10
2019-02-22T09:58:20.876Z,61.20
2019-02-22T09:59:20.849Z,60.90
2019-02-22T10:00:20.841Z,58.60
2019-02-22T10:01:20.828Z,64.40
2019-02-22T10:02:20.869Z,64.10
2019-02-22T10:03:20.807Z,65.20
2019-02-22T10:04:20.799Z,63.00
2019-02-22T10:05:20.793Z,68.50
2019-02-22T10:06:20.772Z,68.30
2019-02-22T10:07:20.763Z,69.20
2019-02-22T10:08:20.775Z,69.40
2019-02-22T10:09:20.739Z,66.00
2019-02-22T10:10:20.786Z,69.10
2019-02-22T10:11:20.795Z,66.00
2019-02-22T10:12:20.722Z,67.10
2019-02-22T10:13:20.700Z,72.90
2019-02-22T10:14:20.686Z,71.30
2019-02-22T10:15:20.685Z,69.50
2019-02-22T10:16:20.666Z,70.30
2019-02-22T10:17:20.690Z,68.40
2019-02-22T10:18:20.648Z,72.40
2019-02-22T10:19:20.629Z,71.70
2019-02-22T10:20:20.620Z,64.70
2019-02-22T10:21:20.610Z,68.90
2019-02-22T10:22:20.601Z,71.80
2019-02-22T10:23:20.621Z,67.30
2019-02-22T10:24:20.582Z,69.00
2019-02-22T10:25:20.566Z,70.10
2019-02-22T10:26:21.491Z,73.60
2019-02-22T10:27:20.567Z,74.00
2019-02-22T10:28:20.532Z,76.40
2019-02-22T10:29:20.520Z,73.60
2019-02-22T10:30:20.513Z,69.00
2019-02-22T10:31:20.502Z,73.70
2019-02-22T10:32:20.536Z,74.40
2019-02-22T10:33:20.508Z,76.00
2019-02-22T10:34:20.489Z,75.70
2019-02-22T10:35:20.465Z,76.90
2019-02-22T10:36:20.476Z,82.30
2019-02-22T10:37:20.471Z,80.90
2019-02-22T10:38:20.430Z,76.00
2019-02-22T10:39:20.422Z,76.20
2019-02-22T10:40:20.404Z,75.80
2019-02-22T10:41:20.393Z,78.50
2019-02-22T10:42:20.408Z,80.00
2019-02-22T10:43:20.405Z,84.60
2019-02-22T10:44:20.359Z,79.90
2019-02-22T10:45:20.349Z,78.20
2019-02-22T10:46:22.262Z,80.40
2019-02-22T10:47:20.329Z,77.20
2019-02-22T10:48:20.317Z,81.50
2019-02-22T10:49:20.340Z,78.70
2019-02-22T10:50:27.333Z,73.90
2019-02-22T10:51:20.317Z,76.90
2019-02-22T10:52:20.278Z,76.90
2019-02-22T10:53:20.262Z,74.80
2019-02-22T10:54:20.261Z,74.20
2019-02-22T10:55:20.261Z,71.50
2019-02-22T10:56:20.229Z,78.20
2019-02-22T10:57:20.221Z,76.20
2019-02-22T10:58:20.206Z,77.50
2019-02-22T10:59:20.192Z,76.70
2019-02-22T11:00:20.217Z,80.60
2019-02-22T11:01:20.177Z,83.80
2019-02-22T11:02:20.165Z,82.60
2019-02-22T11:03:20.151Z,77.00
2019-02-22T11:04:20.146Z,83.30
2019-02-22T11:05:20.133Z,85.20
2019-02-22T11:06:20.152Z,86.90
2019-02-22T11:07:20.115Z,82.20
2019-02-22T11:08:20.118Z,85.70
2019-02-22T11:09:20.084Z,85.70
2019-02-22T11:10:20.073Z,94.50
2019-02-22T11:11:20.063Z,87.50
2019-02-22T11:12:20.069Z,87.80
2019-02-22T11:13:21.405Z,83.90
2019-02-22T11:14:28.939Z,78.50
2019-02-22T11:15:21.024Z,81.70
2019-02-22T11:16:20.013Z,83.40
2019-02-22T11:17:20.033Z,75.70
2019-02-22T11:18:19.986Z,70.30
2019-02-22T11:19:19.974Z,70.80
2019-02-22T11:20:19.963Z,68.20
2019-02-22T11:21:19.960Z,69.20
2019-02-22T11:22:19.975Z,67.00
2019-02-22T11:23:19.935Z,64.00
2019-02-22T11:24:20.132Z,68.70
2019-02-22T11:25:19.917Z,67.70
2019-02-22T11:26:19.900Z,73.60
2019-02-22T11:27:19.891Z,77.50
2019-02-22T11:28:19.912Z,75.00
2019-02-22T11:29:19.868Z,77.00
2019-02-22T11:30:19.893Z,70.90
2019-02-22T11:31:19.845Z,72.30
2019-02-22T11:32:19.835Z,76.60
2019-02-22T11:33:19.849Z,70.40
2019-02-22T11:34:19.816Z,75.70
2019-02-22T11:35:19.802Z,70.00
2019-02-22T11:36:19.793Z,72.30
2019-02-22T11:37:19.780Z,73.20
2019-02-22T11:38:19.825Z,73.80
2019-02-22T11:39:19.756Z,73.10
2019-02-22T11:40:19.746Z,77.40
2019-02-22T11:41:19.738Z,74.20
2019-02-22T11:42:19.725Z,82.50
2019-02-22T11:43:19.714Z,78.60
2019-02-22T11:44:19.727Z,95.30
2019-02-22T11:45:19.697Z,80.40
2019-02-22T11:46:19.688Z,78.50
2019-02-22T11:47:19.671Z,82.60
2019-02-22T11:48:19.664Z,79.20
2019-02-22T11:49:19.705Z,84.00
2019-02-22T11:50:19.635Z,84.30
2019-02-22T11:51:19.628Z,93.60
2019-02-22T11:52:19.614Z,92.00
2019-02-22T11:53:19.606Z,88.50
2019-02-22T11:54:19.596Z,90.40
2019-02-22T11:55:19.619Z,86.80
2019-02-22T11:56:19.572Z,82.30
2019-02-22T11:57:19.721Z,84.10
2019-02-22T11:58:19.558Z,77.50
2019-02-22T11:59:19.536Z,80.30
2019-02-22T12:00:19.564Z,79.40
2019-02-22T12:01:19.516Z,80.40
2019-02-22T12:02:19.511Z,82.40
2019-02-22T12:03:24.645Z,75.00
2019-02-22T12:04:20.484Z,74.10
2019-02-22T12:05:19.475Z,73.60
2019-02-22T12:06:19.502Z,74.40
2019-02-22T12:07:19.454Z,64.80
2019-02-22T12:08:19.448Z,65.20
2019-02-22T12:09:19.432Z,62.10
2019-02-22T12:10:19.419Z,65.40
2019-02-22T12:11:19.460Z,61.50
2019-02-22T12:12:19.398Z,58.30
2019-02-22T12:13:19.387Z,55.80
2019-02-22T12:14:19.402Z,59.00
2019-02-22T12:15:19.365Z,51.20
2019-02-22T12:16:19.360Z,50.80
2019-02-22T12:17:19.376Z,48.20
2019-02-22T12:18:19.333Z,45.70
2019-02-22T12:19:19.321Z,49.90
2019-02-22T12:20:19.316Z,45.40
2019-02-22T12:21:19.301Z,43.30
2019-02-22T12:22:19.346Z,41.20
2019-02-22T12:23:19.282Z,45.10
2019-02-22T12:24:19.267Z,44.50
2019-02-22T12:25:19.257Z,49.00
2019-02-22T12:26:19.245Z,50.90
2019-02-22T12:27:19.232Z,45.80
2019-02-22T12:28:19.257Z,45.30
2019-02-22T12:29:19.212Z,41.30
2019-02-22T12:30:19.208Z,42.50
2019-02-22T12:31:19.220Z,47.20
2019-02-22T12:32:19.180Z,43.80
2019-02-22T12:33:19.167Z,44.30
2019-02-22T12:34:19.193Z,42.00
2019-02-22T12:35:19.148Z,45.10
2019-02-22T12:36:19.137Z,43.80
2019-02-22T12:37:19.125Z,45.60
2019-02-22T12:38:19.115Z,41.30
2019-02-22T12:39:19.157Z,42.80
2019-02-22T12:40:19.098Z,42.20
2019-02-22T12:41:19.080Z,34.40
2019-02-22T12:42:19.068Z,41.40
2019-02-22T12:43:19.057Z,38.80
2019-02-22T12:44:19.045Z,38.90
2019-02-22T12:45:19.164Z,37.10
2019-02-22T12:46:19.043Z,39.40
2019-02-22T12:47:19.021Z,34.70
2019-02-22T12:48:19.001Z,33.20
2019-02-22T12:49:18.989Z,34.80
2019-02-22T12:50:19.085Z,35.40